Time;durP1;ratioP1;P1;durP2;ratioP2;P2;SDS_P1;SDS_P2;PMS_P1;PMS_P2;Temp;Humidity;BMP_temperature;BMP_pressure;BME280_temperature;BME280_humidity;BME280_pressure;Samples;Min_cycle;Max_cycle;Signal;HPM_P1;HPM_P2
2021/12/06 00:00:50;;;;;;;;;;;;;;;-20.06;77.90;101929.03;5049471;28;20037;-73
2021/12/06 00:03:20;;;;;;;5.53;1.38;;;;;;;-20.05;77.96;101922.88;5050938;28;20395;-72
2021/12/06 00:05:45;;;;;;;3.03;1.55;;;;;;;-20.03;77.91;101921.06;5050304;28;20037;-70
2021/12/06 00:08:11;;;;;;;1.13;0.98;;;;;;;-20.02;78.13;101914.94;5051469;28;20052;-73
2021/12/06 00:10:37;;;;;;;1.33;0.85;;;;;;;-20.01;77.95;101926.25;5053233;28;20123;-73
2021/12/06 00:13:03;;;;;;;1.80;1.40;;;;;;;-20.04;77.90;101924.59;5053039;28;20056;-74
2021/12/06 00:15:32;;;;;;;0.50;0.50;;;;;;;-20.08;77.84;101933.44;5053425;28;20119;-73
2021/12/06 00:17:58;;;;;;;;;;;;;;;-20.11;77.69;101933.56;5055944;28;20511;-71
2021/12/06 00:20:23;;;;;;;3.03;1.65;;;;;;;-20.10;77.69;101932.66;5055070;28;19932;-71
2021/12/06 00:22:49;;;;;;;1.92;1.73;;;;;;;-20.12;77.63;101936.22;5042303;28;20039;-71
2021/12/06 00:25:15;;;;;;;1.95;1.33;;;;;;;-20.11;77.81;101937.94;5049283;28;20036;-72
2021/12/06 00:27:41;;;;;;;2.10;1.30;;;;;;;-20.12;77.89;101946.69;5052646;28;20475;-70
2021/12/06 00:30:11;;;;;;;1.85;1.45;;;;;;;-20.18;77.86;101952.94;5053296;28;20043;-71
2021/12/06 00:32:37;;;;;;;3.55;1.88;;;;;;;-20.27;77.72;101950.66;5052496;28;20450;-73
2021/12/06 00:35:04;;;;;;;3.53;0.98;;;;;;;-20.33;77.58;101948.25;5049516;28;20061;-71
2021/12/06 00:37:34;;;;;;;5.53;2.00;;;;;;;-20.38;77.47;101930.13;5052631;28;20067;-71
2021/12/06 00:40:03;;;;;;;3.75;1.75;;;;;;;-20.44;77.63;101940.84;5044289;28;20045;-71
2021/12/06 00:42:31;;;;;;;3.53;1.92;;;;;;;-20.52;77.56;101935.84;5042897;28;20042;-74
2021/12/06 00:44:57;;;;;;;2.03;1.45;;;;;;;-20.56;77.77;101942.09;5052671;28;20588;-74
2021/12/06 00:47:23;;;;;;;1.90;1.30;;;;;;;-20.61;77.81;101941.38;5052909;28;20040;-74
2021/12/06 00:49:50;;;;;;;0.82;0.82;;;;;;;-20.61;77.83;101938.78;5051618;28;20033;-74
2021/12/06 00:52:16;;;;;;;4.50;1.92;;;;;;;-20.66;77.98;101932.00;5052506;28;20029;-71
2021/12/06 00:54:43;;;;;;;2.67;1.30;;;;;;;-20.73;77.93;101959.19;5048119;28;20414;-71
2021/12/06 00:57:11;;;;;;;4.90;1.88;;;;;;;-20.83;78.03;101937.75;5050144;28;20075;-72
2021/12/06 00:59:38;;;;;;;4.25;1.23;;;;;;;-20.87;77.62;101942.22;5036701;28;20049;-72
2021/12/06 01:02:05;;;;;;;3.33;1.50;;;;;;;-20.89;77.89;101937.97;5048638;28;20071;-72
2021/12/06 01:04:36;;;;;;;4.25;2.53;;;;;;;-20.95;77.97;101935.56;5066399;28;20038;-72
2021/12/06 01:07:03;;;;;;;2.75;1.92;;;;;;;-21.01;77.99;101939.19;5054225;28;20033;-72
2021/12/06 01:09:30;;;;;;;5.22;2.42;;;;;;;-21.03;78.21;101950.56;5066952;28;20040;-72
2021/12/06 01:11:56;;;;;;;5.28;2.45;;;;;;;-21.02;78.12;101952.28;5057596;28;20087;-72
2021/12/06 01:14:22;;;;;;;3.70;2.00;;;;;;;-21.07;78.06;101944.63;5063608;28;20052;-72
2021/12/06 01:16:47;;;;;;;3.53;1.92;;;;;;;-21.10;78.05;101953.38;5052012;28;20090;-72
2021/12/06 01:19:14;;;;;;;5.30;2.05;;;;;;;-21.14;78.05;101938.75;5043203;28;20118;-72
2021/12/06 01:22:05;;;;;;;2.03;1.23;;;;;;;-21.16;78.07;101945.75;5050466;28;20503;-72
2021/12/06 01:24:39;;;;;;;3.08;2.10;;;;;;;-21.16;78.31;101950.97;5048594;28;20499;-72
2021/12/06 01:27:36;;;;;;;3.13;1.52;;;;;;;-21.19;78.31;101945.84;5046257;28;20037;-72
2021/12/06 01:40:19;;;;;;;2.90;1.60;;;;;;;-21.19;77.91;101937.16;5051357;28;20041;-72
2021/12/06 01:42:45;;;;;;;0.85;0.70;;;;;;;-21.20;77.92;101938.06;5047477;28;20045;-72
2021/12/06 01:45:10;;;;;;;1.20;1.10;;;;;;;-21.16;78.12;101927.53;5048461;28;20060;-72
2021/12/06 01:47:39;;;;;;;2.65;1.50;;;;;;;-21.12;78.16;101921.31;5062427;28;20091;-72
2021/12/06 01:50:15;;;;;;;2.10;1.70;;;;;;;-21.07;78.21;101924.59;5078765;28;20033;-72
2021/12/06 01:52:47;;;;;;;2.08;1.60;;;;;;;-21.06;78.22;101921.09;5050214;28;20036;-72
2021/12/06 01:55:16;;;;;;;1.85;0.73;;;;;;;-21.06;78.43;101920.25;5049660;28;20119;-72
2021/12/06 01:57:42;;;;;;;5.93;2.22;;;;;;;-21.05;78.37;101916.75;5049102;28;20136;-72
2021/12/06 02:00:16;;;;;;;0.45;0.45;;;;;;;-21.06;78.22;101920.25;5044938;28;20033;-71
2021/12/06 02:02:42;;;;;;;1.50;1.40;;;;;;;-21.06;78.16;101918.50;5050930;28;20392;-70
2021/12/06 02:05:12;;;;;;;1.60;1.15;;;;;;;-21.04;78.48;101917.59;5050562;28;20036;-70
2021/12/06 02:07:38;;;;;;;2.97;1.05;;;;;;;-21.08;78.29;101920.28;5033484;28;20491;-73
2021/12/06 02:10:06;;;;;;;6.38;2.63;;;;;;;-21.09;78.26;101918.59;5051274;28;20071;-74
2021/12/06 02:12:33;;;;;;;6.03;2.65;;;;;;;-21.11;78.27;101911.72;5032919;28;20033;-74
2021/12/06 02:15:07;;;;;;;4.65;2.25;;;;;;;-21.16;78.27;101901.47;5049070;28;20032;-74
2021/12/06 02:17:40;;;;;;;3.78;2.58;;;;;;;-21.11;78.45;101902.16;5054153;28;20044;-74
2021/12/06 02:20:11;;;;;;;5.43;2.85;;;;;;;-21.09;78.27;101908.16;5059361;28;20033;-74
2021/12/06 02:22:45;;;;;;;5.10;3.10;;;;;;;-21.11;78.42;101903.91;5054333;28;20051;-73
2021/12/06 02:25:15;;;;;;;5.43;2.58;;;;;;;-21.14;78.37;101920.50;5056371;28;20056;-71
2021/12/06 02:27:43;;;;;;;5.30;3.00;;;;;;;-21.20;78.56;101933.69;5048289;28;20044;-72
2021/12/06 02:30:11;;;;;;;7.55;2.63;;;;;;;-21.24;78.61;101916.50;5048449;28;20051;-73
2021/12/06 02:32:37;;;;;;;5.97;3.33;;;;;;;-21.30;78.44;101937.53;5036303;28;20095;-73
2021/12/06 02:35:08;;;;;;;6.80;2.90;;;;;;;-21.35;78.30;101926.38;5050374;28;20409;-73
2021/12/06 02:37:35;;;;;;;7.97;3.33;;;;;;;-21.40;78.22;101915.25;5052202;28;20041;-73
2021/12/06 02:40:08;;;;;;;7.72;3.30;;;;;;;-21.43;78.40;101923.16;5049225;28;20099;-73
2021/12/06 02:42:34;;;;;;;5.93;2.78;;;;;;;-21.50;78.27;101929.47;5049980;28;20705;-73
2021/12/06 02:45:00;;;;;;;5.47;3.00;;;;;;;-21.60;78.31;101938.44;5062154;28;20512;-73
2021/12/06 02:47:26;;;;;;;7.30;3.25;;;;;;;-21.65;78.51;101920.38;5053275;28;20041;-72
2021/12/06 02:49:52;;;;;;;5.82;2.88;;;;;;;-21.69;78.52;101924.81;5052027;28;20060;-72
2021/12/06 02:52:18;;;;;;;6.53;3.40;;;;;;;-21.71;78.60;101918.75;5052360;28;20071;-73
2021/12/06 02:54:48;;;;;;;6.13;2.83;;;;;;;-21.72;78.50;101924.88;5050213;28;20037;-72
2021/12/06 02:59:44;;;;;;;6.57;2.70;;;;;;;-21.72;78.68;101901.44;5050344;28;20045;-72
2021/12/06 03:02:15;;;;;;;7.18;2.75;;;;;;;-21.71;78.80;101910.09;5049170;28;20036;-73
2021/12/06 03:04:42;;;;;;;6.28;2.50;;;;;;;-21.68;78.78;101904.84;5048632;28;20033;-73
2021/12/06 03:07:09;;;;;;;8.57;3.75;;;;;;;-21.61;78.83;101897.69;5046981;28;20041;-73
2021/12/06 03:09:37;;;;;;;7.43;3.33;;;;;;;-21.62;78.87;101902.03;5051726;28;20124;-73
2021/12/06 03:12:11;;;;;;;5.70;3.00;;;;;;;-21.60;78.79;101897.63;5049566;28;20457;-72
2021/12/06 03:14:41;;;;;;;6.43;3.33;;;;;;;-21.57;78.95;101896.69;5046667;28;20060;-72
2021/12/06 03:17:13;;;;;;;6.70;3.08;;;;;;;-21.52;78.80;101906.06;5049866;28;20067;-72
2021/12/06 03:19:39;;;;;;;8.93;3.97;;;;;;;-21.46;78.89;101895.47;5048394;28;20037;-72
2021/12/06 03:22:06;;;;;;;6.97;3.33;;;;;;;-21.46;79.13;101907.63;5049475;28;20499;-72
2021/12/06 03:24:32;;;;;;;8.73;4.40;;;;;;;-21.42;79.21;101904.88;5049189;28;20029;-72
2021/12/06 03:26:59;;;;;;;6.68;3.88;;;;;;;-21.42;79.22;101897.06;5047587;28;20128;-72
2021/12/06 03:29:26;;;;;;;6.88;3.67;;;;;;;-21.41;79.16;101898.78;5040425;28;20124;-72
2021/12/06 03:31:52;;;;;;;8.98;4.03;;;;;;;-21.39;79.26;101903.94;5049515;28;20037;-74
2021/12/06 03:34:19;;;;;;;5.63;3.85;;;;;;;-21.40;79.22;101900.47;5049890;28;20033;-72
2021/12/06 03:36:47;;;;;;;10.50;3.50;;;;;;;-21.34;79.31;101902.06;5051835;28;20036;-73
2021/12/06 03:39:23;;;;;;;7.15;3.63;;;;;;;-21.32;79.23;101912.44;5054630;28;20056;-74
2021/12/06 03:41:51;;;;;;;4.25;3.20;;;;;;;-21.33;79.26;101906.38;5054134;28;20036;-74
2021/12/06 03:44:20;;;;;;;7.30;3.93;;;;;;;-21.29;79.24;101917.53;5055192;28;20560;-74
2021/12/06 03:46:48;;;;;;;6.35;3.42;;;;;;;-21.31;79.16;101919.34;5052788;28;20478;-73
2021/12/06 03:49:15;;;;;;;8.27;3.25;;;;;;;-21.30;79.17;101910.63;5060778;28;20511;-72
2021/12/06 03:51:43;;;;;;;7.20;3.28;;;;;;;-21.31;79.24;101906.31;5061392;28;20548;-72
2021/12/06 03:54:14;;;;;;;2.42;0.73;;;;;;;-21.29;79.29;101910.59;5055380;28;20047;-72
2021/12/06 03:57:19;;;;;;;3.22;1.58;;;;;;;-21.27;79.28;101911.38;5049778;28;20107;-72
2021/12/06 03:59:47;;;;;;;1.63;0.85;;;;;;;-21.21;79.20;101905.94;5033136;28;20045;-72
2021/12/06 04:02:13;;;;;;;2.47;1.35;;;;;;;-21.20;79.22;101902.44;5041225;28;20389;-73
2021/12/06 04:04:40;;;;;;;0.35;0.35;;;;;;;-21.19;79.40;101898.91;5051304;28;20040;-71
2021/12/06 04:07:07;;;;;;;2.30;1.48;;;;;;;-21.16;79.38;101898.84;5051731;28;20052;-72
2021/12/06 04:09:36;;;;;;;2.03;1.45;;;;;;;-21.12;79.30;101883.97;5052337;28;20542;-73
2021/12/06 04:12:06;;;;;;;4.15;1.30;;;;;;;-21.10;79.29;101896.03;5052377;28;20056;-72
2021/12/06 04:14:34;;;;;;;4.43;1.00;;;;;;;-21.11;79.36;101888.28;5053143;28;20049;-71
2021/12/06 04:17:00;;;;;;;0.50;0.50;;;;;;;-21.12;79.18;101897.00;5051918;28;20040;-71
2021/12/06 04:19:26;;;;;;;0.40;0.40;;;;;;;-21.11;79.24;101898.69;5051754;28;20037;-73
2021/12/06 04:21:52;;;;;;;2.60;1.50;;;;;;;-21.07;79.26;101898.53;5052130;28;20076;-73
2021/12/06 04:24:18;;;;;;;2.70;1.60;;;;;;;-21.04;79.15;101896.72;5052030;28;20037;-73
2021/12/06 04:26:44;;;;;;;5.28;2.63;;;;;;;-21.02;79.27;101881.88;5051597;28;20037;-72
2021/12/06 04:29:12;;;;;;;1.48;1.38;;;;;;;-21.03;79.32;101874.97;5045100;28;20489;-72
2021/12/06 04:31:50;;;;;;;0.93;0.93;;;;;;;-21.01;79.34;101876.63;5043862;28;20411;-73
2021/12/06 04:34:19;;;;;;;2.40;1.85;;;;;;;-20.97;79.34;101874.78;5049824;28;20410;-73
2021/12/06 04:36:45;;;;;;;1.00;0.98;;;;;;;-20.90;79.42;101869.31;5051575;28;20465;-73
2021/12/06 04:39:14;;;;;;;2.88;1.85;;;;;;;-20.87;79.56;101879.63;5051560;28;20131;-73
2021/12/06 04:41:41;;;;;;;0.40;0.40;;;;;;;-20.85;79.50;101870.00;5051757;28;20136;-72
2021/12/06 04:44:07;;;;;;;1.30;0.85;;;;;;;-20.80;79.47;101882.91;5050843;28;20060;-73
2021/12/06 04:46:34;;;;;;;2.03;1.50;;;;;;;-20.76;79.45;101876.69;5049732;28;20033;-73
2021/12/06 04:49:00;;;;;;;3.58;1.85;;;;;;;-20.74;79.40;101880.09;5052951;28;20040;-73
2021/12/06 04:51:27;;;;;;;1.88;1.40;;;;;;;-20.76;79.38;101876.69;5035117;28;20043;-73
2021/12/06 04:53:53;;;;;;;4.03;1.50;;;;;;;-20.76;79.38;101881.91;5051761;28;20128;-73
2021/12/06 04:56:29;;;;;;;6.00;2.63;;;;;;;-20.76;79.41;101884.50;5051030;28;20602;-73
2021/12/06 04:59:12;;;;;;;3.88;2.20;;;;;;;-20.74;79.39;101887.91;5051693;28;20059;-73
2021/12/06 05:01:40;;;;;;;4.40;2.75;;;;;;;-20.77;79.42;101885.41;5051017;28;20048;-73
2021/12/06 05:04:12;;;;;;;1.13;0.82;;;;;;;-20.78;79.40;101884.56;5048010;28;20041;-73
2021/12/06 05:06:43;;;;;;;3.88;2.00;;;;;;;-20.77;79.40;101896.69;5048526;28;20038;-72
2021/12/06 05:09:16;;;;;;;2.65;1.40;;;;;;;-20.80;79.43;101885.53;5038518;28;20511;-72
2021/12/06 05:11:44;;;;;;;3.67;2.42;;;;;;;-20.78;79.52;101888.94;5051308;28;20041;-73
2021/12/06 05:14:10;;;;;;;4.40;2.33;;;;;;;-20.80;79.45;101891.59;5049370;28;20068;-72
2021/12/06 05:16:36;;;;;;;4.25;2.85;;;;;;;-20.82;79.48;101892.56;5051055;28;20040;-72
2021/12/06 05:19:04;;;;;;;3.88;2.08;;;;;;;-20.84;79.45;101886.50;5051171;28;20037;-72
2021/12/06 05:21:31;;;;;;;3.92;1.20;;;;;;;-20.84;79.37;101887.34;5050552;28;20094;-72
2021/12/06 05:23:57;;;;;;;4.15;1.88;;;;;;;-20.83;79.51;101896.03;5050502;28;20075;-72
2021/12/06 05:26:23;;;;;;;5.57;3.30;;;;;;;-20.83;79.19;101896.88;5051971;28;20575;-72
2021/12/06 05:28:51;;;;;;;2.65;1.38;;;;;;;-20.82;79.75;101892.56;5050169;28;20060;-73
2021/12/06 05:31:20;;;;;;;3.25;1.52;;;;;;;-20.80;79.79;101893.34;5052080;28;20091;-72
2021/12/06 05:33:51;;;;;;;3.57;1.60;;;;;;;-20.78;79.72;101899.34;5050837;28;20037;-72
2021/12/06 05:36:17;;;;;;;4.03;2.00;;;;;;;-20.79;79.78;101897.66;5051700;28;20318;-72
2021/12/06 05:38:43;;;;;;;2.42;1.70;;;;;;;-20.72;79.55;101900.91;5051765;28;20487;-72
2021/12/06 05:41:09;;;;;;;0.30;0.30;;;;;;;-20.67;79.72;101892.00;5051619;28;20075;-72
2021/12/06 05:43:35;;;;;;;0.75;0.75;;;;;;;-20.62;79.70;101886.66;5051711;28;20416;-72
2021/12/06 05:46:00;;;;;;;4.50;2.55;;;;;;;-20.61;79.75;101897.03;5051546;28;20406;-72
2021/12/06 05:48:26;;;;;;;0.30;0.30;;;;;;;-20.55;79.41;101891.59;5050901;28;20489;-72
2021/12/06 05:50:52;;;;;;;3.13;2.38;;;;;;;-20.53;79.74;101900.22;5051603;28;20051;-72
2021/12/06 05:53:18;;;;;;;3.10;1.52;;;;;;;-20.51;79.67;101903.63;5051307;28;20043;-72
2021/12/06 05:55:46;;;;;;;0.60;0.60;;;;;;;-20.45;79.67;101902.59;5051533;28;20068;-72
2021/12/06 05:58:12;;;;;;;1.95;1.65;;;;;;;-20.41;79.89;101911.16;5050188;28;20029;-72
2021/12/06 06:00:38;;;;;;;4.97;2.55;;;;;;;-20.41;79.78;101911.16;5051181;28;20463;-72
2021/12/06 06:03:06;;;;;;;5.85;3.28;;;;;;;-20.39;79.81;101902.34;5051196;28;20040;-72
2021/12/06 06:05:33;;;;;;;1.77;1.33;;;;;;;-20.38;79.93;101891.00;5051331;28;20037;-72
2021/12/06 06:08:01;;;;;;;2.65;1.83;;;;;;;-20.34;79.87;101904.78;5050798;28;20037;-72
2021/12/06 06:10:26;;;;;;;6.78;3.17;;;;;;;-20.31;79.87;101918.56;5051045;28;20106;-72
2021/12/06 06:12:52;;;;;;;2.42;1.95;;;;;;;-20.32;79.91;101913.41;5050845;28;20089;-72
2021/12/06 06:15:18;;;;;;;0.82;0.82;;;;;;;-20.36;79.89;101907.44;5049873;28;20495;-72
2021/12/06 06:17:44;;;;;;;5.80;2.40;;;;;;;-20.36;79.99;101906.59;5051083;28;20076;-72
2021/12/06 06:20:14;;;;;;;5.28;3.00;;;;;;;-20.35;79.84;101910.91;5050492;28;20041;-73
2021/12/06 06:22:41;;;;;;;6.65;2.90;;;;;;;-20.37;79.74;101910.97;5050722;28;20036;-73
2021/12/06 06:25:08;;;;;;;5.18;2.95;;;;;;;-20.37;79.63;101908.34;5051147;28;20041;-73
2021/12/06 06:27:33;;;;;;;1.33;1.02;;;;;;;-20.36;79.66;101909.19;5050885;28;20037;-72
2021/12/06 06:29:59;;;;;;;1.58;1.48;;;;;;;-20.36;79.80;101902.22;5051112;28;20037;-72
2021/12/06 06:32:25;;;;;;;6.85;2.70;;;;;;;-20.32;79.74;101893.38;5050772;28;20088;-73
2021/12/06 06:34:50;;;;;;;1.02;0.98;;;;;;;-20.29;79.63;101897.66;5051096;28;20037;-73
2021/12/06 06:37:16;;;;;;;5.68;3.67;;;;;;;-20.26;79.51;101902.78;5050754;28;20608;-72
2021/12/06 06:39:42;;;;;;;7.35;2.47;;;;;;;-20.30;79.55;101886.38;5051136;28;20048;-73
2021/12/06 06:42:08;;;;;;;4.65;1.52;;;;;;;-20.28;79.43;101891.53;5050675;28;20139;-73
2021/12/06 06:44:33;;;;;;;6.03;2.67;;;;;;;-20.28;79.55;101901.97;5050694;28;20073;-72
2021/12/06 06:46:59;;;;;;;4.43;2.15;;;;;;;-20.30;79.52;101888.09;5039926;28;20045;-72
2021/12/06 06:49:25;;;;;;;3.75;1.10;;;;;;;-20.29;79.34;101884.63;5050476;28;20041;-72
2021/12/06 06:51:51;;;;;;;7.00;1.90;;;;;;;-20.26;79.36;101893.19;5050463;28;20041;-72
2021/12/06 06:54:16;;;;;;;6.15;2.63;;;;;;;-20.26;79.61;101887.09;5050016;28;20241;-73
2021/12/06 06:56:42;;;;;;;3.15;2.25;;;;;;;-20.25;79.15;101876.59;5049239;28;20055;-73
2021/12/06 06:59:07;;;;;;;10.73;3.55;;;;;;;-20.25;78.89;101883.59;5049901;28;20033;-73
2021/12/06 07:01:33;;;;;;;3.22;1.90;;;;;;;-20.27;79.02;101873.22;5049897;28;20037;-73
2021/12/06 07:03:59;;;;;;;7.75;3.78;;;;;;;-20.27;78.92;101880.19;5049917;28;20044;-73
2021/12/06 07:06:27;;;;;;;9.27;3.25;;;;;;;-20.26;78.77;101881.88;5049972;28;20045;-72
2021/12/06 07:08:54;;;;;;;4.55;2.30;;;;;;;-20.26;78.95;101869.69;5050335;28;20045;-72
2021/12/06 07:11:21;;;;;;;5.78;2.22;;;;;;;-20.26;78.85;101877.53;5049425;28;20037;-72
2021/12/06 07:13:47;;;;;;;5.97;2.70;;;;;;;-20.22;78.81;101878.25;5049743;28;20045;-72
2021/12/06 07:16:14;;;;;;;4.35;2.25;;;;;;;-20.21;78.69;101882.56;5049782;28;20037;-72
2021/12/06 07:18:40;;;;;;;4.40;2.17;;;;;;;-20.24;78.57;101899.19;5049591;28;20080;-72
2021/12/06 07:21:06;;;;;;;3.40;1.95;;;;;;;-20.27;78.75;101901.06;5050354;28;20491;-72
2021/12/06 07:23:32;;;;;;;5.65;2.10;;;;;;;-20.29;78.66;101905.50;5049572;28;20456;-72
2021/12/06 07:25:57;;;;;;;5.45;2.53;;;;;;;-20.27;78.73;101908.91;5050592;28;20048;-72
2021/12/06 07:28:23;;;;;;;1.70;1.25;;;;;;;-20.29;78.72;101914.19;5049990;28;20033;-72
2021/12/06 07:30:48;;;;;;;4.53;1.70;;;;;;;-20.29;78.71;101913.31;5050179;28;20587;-72
2021/12/06 07:33:14;;;;;;;5.90;2.50;;;;;;;-20.29;78.56;101913.31;5050036;28;20086;-72
2021/12/06 07:35:40;;;;;;;6.85;3.35;;;;;;;-20.32;78.55;101913.41;5050363;28;20041;-72
2021/12/06 07:38:07;;;;;;;3.80;1.80;;;;;;;-20.35;78.49;101909.16;5050213;28;20045;-72
2021/12/06 07:40:33;;;;;;;2.20;1.67;;;;;;;-20.32;78.53;101913.41;5048723;28;20082;-73
2021/12/06 07:42:59;;;;;;;6.70;2.78;;;;;;;-20.35;78.35;101908.28;5049184;28;20040;-73
2021/12/06 07:45:25;;;;;;;1.55;1.30;;;;;;;-20.37;78.53;101913.56;5047209;28;20037;-72
2021/12/06 07:47:51;;;;;;;7.97;3.20;;;;;;;-20.33;78.31;101912.56;5048662;28;20598;-73
2021/12/06 07:50:18;;;;;;;6.18;2.50;;;;;;;-20.37;78.36;101899.66;5049305;28;20495;-72
2021/12/06 07:52:44;;;;;;;7.60;2.80;;;;;;;-20.39;78.40;101904.94;5045331;28;20036;-73
2021/12/06 07:55:13;;;;;;;0.65;0.60;;;;;;;-20.32;78.40;101895.13;5049914;28;20033;-73
2021/12/06 07:57:39;;;;;;;3.35;2.45;;;;;;;-20.27;78.49;101888.03;5050160;28;20045;-72
2021/12/06 08:00:08;;;;;;;2.42;1.48;;;;;;;-20.26;78.45;101892.31;5049315;28;20033;-73
2021/12/06 08:02:34;;;;;;;0.50;0.50;;;;;;;-20.26;78.50;101881.88;5049609;28;20048;-73
2021/12/06 08:05:29;;;;;;;7.10;2.35;;;;;;;-20.22;78.44;101888.69;5050096;28;20028;-73
2021/12/06 08:07:47;;;;;;;4.85;2.20;;;;;;;-20.16;78.49;101899.75;5048876;28;20064;-74
2021/12/06 08:10:13;;;;;;;0.70;0.63;;;;;;;-20.12;78.31;101903.13;5049116;28;20032;-73
2021/12/06 08:12:38;;;;;;;2.13;1.70;;;;;;;-20.09;78.61;101902.19;5049108;28;20496;-73
2021/12/06 08:15:04;;;;;;;3.50;1.77;;;;;;;-20.04;78.58;101918.53;5048806;28;20036;-73
2021/12/06 08:17:30;;;;;;;4.55;2.35;;;;;;;-20.05;78.58;101912.44;5048818;28;20044;-73
2021/12/06 08:19:56;;;;;;;2.30;1.88;;;;;;;-20.03;78.54;101897.56;5047654;28;20041;-73
2021/12/06 08:22:21;;;;;;;2.33;1.05;;;;;;;-19.92;78.66;101905.88;5051710;28;20105;-73
2021/12/06 08:24:47;;;;;;;5.57;2.25;;;;;;;-19.79;78.44;101906.25;5052110;28;20098;-73
2021/12/06 08:27:12;;;;;;;2.58;1.80;;;;;;;-19.76;78.37;101903.56;5052452;28;20044;-72
2021/12/06 08:29:39;;;;;;;5.38;1.65;;;;;;;-19.75;78.52;101893.97;5052333;28;20448;-73
2021/12/06 08:32:07;;;;;;;4.07;2.65;;;;;;;-19.75;78.36;101897.44;5052598;28;20037;-73
2021/12/06 08:34:33;;;;;;;4.18;2.47;;;;;;;-19.73;78.06;101897.38;5052776;28;20159;-72
2021/12/06 08:37:01;;;;;;;3.05;1.85;;;;;;;-19.71;78.39;101890.31;5049638;28;20063;-72
2021/12/06 08:39:27;;;;;;;5.15;2.10;;;;;;;-19.62;78.34;101889.97;5051847;28;20051;-72
2021/12/06 08:41:52;;;;;;;3.85;1.88;;;;;;;-19.60;78.43;101896.84;5052307;28;20049;-73
2021/12/06 08:44:18;;;;;;;5.00;1.88;;;;;;;-19.57;78.25;101880.19;5050491;28;20041;-71
2021/12/06 08:46:44;;;;;;;5.35;2.10;;;;;;;-19.53;78.32;101877.38;5052217;28;20133;-71
2021/12/06 08:49:10;;;;;;;3.17;1.65;;;;;;;-19.48;77.97;101876.34;5055136;28;20040;-72
2021/12/06 08:51:44;;;;;;;1.33;1.13;;;;;;;-19.45;77.98;101871.84;5054163;28;20045;-71
2021/12/06 08:54:12;;;;;;;1.67;0.98;;;;;;;-19.39;77.98;101871.63;5051635;28;20447;-72
2021/12/06 08:56:38;;;;;;;4.07;2.20;;;;;;;-19.34;77.97;101872.28;5049682;28;20056;-72
2021/12/06 08:59:05;;;;;;;2.95;1.80;;;;;;;-19.35;77.82;101867.13;5048651;28;20037;-71
2021/12/06 09:01:32;;;;;;;2.65;1.50;;;;;;;-19.40;77.83;101858.59;5044816;28;20079;-72
2021/12/06 09:03:57;;;;;;;4.50;2.38;;;;;;;-19.46;77.44;101854.44;5050746;28;20041;-74
2021/12/06 09:06:23;;;;;;;1.73;1.20;;;;;;;-19.41;77.65;101856.91;5052127;28;20094;-72
2021/12/06 09:08:49;;;;;;;3.45;1.63;;;;;;;-19.36;77.66;101863.66;5057676;28;20028;-73
2021/12/06 09:11:15;;;;;;;4.95;1.98;;;;;;;-19.38;77.97;101851.56;5048434;28;20094;-72
2021/12/06 09:13:42;;;;;;;2.83;1.67;;;;;;;-19.40;78.08;101849.00;5055926;28;20044;-73
2021/12/06 09:16:09;;;;;;;5.47;1.98;;;;;;;-19.42;77.74;101855.22;5059332;28;20541;-72
2021/12/06 09:18:37;;;;;;;3.47;2.47;;;;;;;-19.47;77.76;101857.97;5050787;28;20083;-72
2021/12/06 09:21:06;;;;;;;2.57;1.80;;;;;;;-19.52;77.76;101855.56;5039654;28;20528;-72
2021/12/06 09:23:33;;;;;;;2.28;1.50;;;;;;;-19.49;77.74;101853.72;5051911;28;20037;-72
2021/12/06 09:25:59;;;;;;;4.63;2.47;;;;;;;-19.49;77.75;101848.50;5052051;28;20082;-72
2021/12/06 09:28:27;;;;;;;2.95;1.33;;;;;;;-19.46;77.71;101851.84;5051962;28;20041;-72
2021/12/06 09:30:52;;;;;;;0.88;0.88;;;;;;;-19.46;77.87;101838.78;5052189;28;20033;-72
2021/12/06 09:33:18;;;;;;;6.68;1.40;;;;;;;-19.43;77.75;101838.69;5051807;28;20112;-72
2021/12/06 09:35:47;;;;;;;2.38;1.65;;;;;;;-19.41;77.92;101839.47;5052242;28;20041;-72
2021/12/06 09:38:15;;;;;;;7.57;2.25;;;;;;;-19.38;78.03;101830.63;5051936;28;20503;-72
2021/12/06 09:40:45;;;;;;;6.28;3.10;;;;;;;-19.36;77.90;101834.91;5033972;28;20044;-72
2021/12/06 09:43:11;;;;;;;;;;;;;;;-19.35;77.96;101827.91;5052014;28;20039;-72
2021/12/06 09:45:37;;;;;;;0.47;0.47;;;;;;;-19.33;78.12;101828.69;5051329;28;19920;-72
2021/12/06 09:48:04;;;;;;;1.88;1.15;;;;;;;-19.30;78.41;101834.63;5051903;28;20044;-72
2021/12/06 09:50:47;;;;;;;5.10;2.28;;;;;;;-19.24;78.38;101828.34;5051757;28;20427;-72
2021/12/06 09:53:16;;;;;;;4.07;2.33;;;;;;;-19.25;78.32;101819.63;5050479;28;20107;-72
2021/12/06 09:55:44;;;;;;;5.18;2.10;;;;;;;-19.23;78.57;101815.19;5062222;28;20033;-72
2021/12/06 09:58:11;;;;;;;3.50;1.85;;;;;;;-19.19;78.57;101817.69;5055350;28;20059;-72
2021/12/06 10:00:41;;;;;;;2.20;2.00;;;;;;;-19.16;78.58;101828.84;5060608;28;20048;-72
2021/12/06 10:03:08;;;;;;;1.25;0.88;;;;;;;-19.13;78.97;101820.88;5055231;28;20667;-72
2021/12/06 10:05:34;;;;;;;4.82;2.58;;;;;;;-19.06;78.93;101829.34;5051430;28;20037;-76
2021/12/06 10:08:01;;;;;;;5.25;2.38;;;;;;;-19.04;78.94;101823.13;5058874;28;20433;-72
2021/12/06 10:10:27;;;;;;;1.30;1.25;;;;;;;-19.04;78.80;101814.44;5050319;28;20091;-72
2021/12/06 10:12:54;;;;;;;0.30;0.30;;;;;;;-19.03;78.72;101818.75;5049296;28;20132;-82
2021/12/06 10:15:25;;;;;;;0.60;0.60;;;;;;;-19.02;78.56;101812.59;5049819;28;20041;-80
2021/12/06 10:17:52;;;;;;;6.07;2.65;;;;;;;-18.97;78.77;101823.72;5049028;28;20049;-72
2021/12/06 10:20:18;;;;;;;4.68;1.80;;;;;;;-18.96;78.75;101812.34;5050832;28;20040;-72
2021/12/06 10:22:44;;;;;;;3.78;1.77;;;;;;;-18.95;78.69;101814.03;5051033;28;20120;-72
2021/12/06 10:25:10;;;;;;;3.33;2.05;;;;;;;-18.96;78.74;101807.09;5050974;28;20041;-73
2021/12/06 10:27:35;;;;;;;1.48;1.23;;;;;;;-18.99;78.68;101807.25;5049631;28;20313;-72
2021/12/06 10:30:08;;;;;;;3.95;2.35;;;;;;;-18.99;78.75;101808.09;5051038;28;20056;-73
2021/12/06 10:32:36;;;;;;;6.45;3.85;;;;;;;-18.95;78.68;101799.19;5046706;28;20411;-71
2021/12/06 10:35:14;;;;;;;6.40;2.28;;;;;;;-18.92;78.76;101804.28;5045131;28;20029;-72
2021/12/06 10:37:45;;;;;;;6.50;2.90;;;;;;;-18.84;78.89;101803.97;5039729;28;20132;-75
2021/12/06 10:40:17;;;;;;;1.00;1.00;;;;;;;-18.81;78.92;101801.22;5047488;28;20040;-74
2021/12/06 10:42:44;;;;;;;3.47;2.15;;;;;;;-18.79;78.83;101794.16;5048301;28;20044;-76
2021/12/06 10:45:16;;;;;;;6.40;3.22;;;;;;;-18.75;79.26;101792.25;5046980;28;20033;-75
2021/12/06 10:47:42;;;;;;;3.53;2.33;;;;;;;-18.70;79.41;101792.94;5048913;28;20064;-76
2021/12/06 10:50:08;;;;;;;1.75;1.60;;;;;;;-18.63;79.33;101795.22;5050196;28;20065;-74
2021/12/06 10:52:34;;;;;;;3.08;0.60;;;;;;;-18.56;79.31;101784.47;5050109;28;20439;-73
2021/12/06 10:54:59;;;;;;;1.95;1.40;;;;;;;-18.48;79.48;101774.50;5050294;28;20040;-73
2021/12/06 10:57:48;;;;;;;4.40;2.20;;;;;;;-18.44;79.42;101773.44;5049580;28;20041;-73
2021/12/06 11:00:28;;;;;;;3.25;1.90;;;;;;;-18.42;79.51;101782.06;5049797;28;20082;-74
2021/12/06 11:02:54;;;;;;;0.70;0.70;;;;;;;-18.40;79.75;101785.47;5035540;28;20131;-74
2021/12/06 11:05:22;;;;;;;4.00;2.50;;;;;;;-18.41;79.55;101770.66;5049104;28;20785;-74
2021/12/06 11:08:16;;;;;;;4.72;2.58;;;;;;;-18.37;79.57;101764.41;5049764;28;20033;-76
2021/12/06 11:11:09;;;;;;;3.75;2.05;;;;;;;-18.31;79.67;101764.09;5043211;28;20087;-75
2021/12/06 11:13:41;;;;;;;3.20;1.95;;;;;;;-18.30;79.83;101761.41;5047788;28;20118;-75
2021/12/06 11:16:20;;;;;;;0.70;0.68;;;;;;;-18.25;79.81;101758.59;5049936;28;20128;-79
2021/12/06 11:18:55;;;;;;;5.10;2.13;;;;;;;-18.20;79.83;101755.78;5041947;28;20536;-76
2021/12/06 11:21:33;;;;;;;7.22;2.42;;;;;;;-18.15;80.03;101749.41;5050099;28;20040;-76
2021/12/06 11:24:16;;;;;;;1.65;1.55;;;;;;;-18.12;79.83;101764.97;5048397;28;20041;-75
2021/12/06 11:27:04;;;;;;;1.80;1.48;;;;;;;-18.10;79.82;101757.88;5049518;28;20098;-77
2021/12/06 11:30:03;;;;;;;2.15;1.67;;;;;;;-18.04;79.89;101760.25;5047767;28;20033;-82
2021/12/06 11:32:32;;;;;;;;;;;;;;;-18.01;80.00;101759.25;5026665;28;20172;-82
2021/12/06 11:35:03;;;;;;;5.70;2.47;;;;;;;-17.97;80.13;101752.94;5050465;28;20353;-84